This is the latest recevied weather packets stored in our database for station/object IA5FYI-13. If no packets are shown the sender has not sent any weather packets the latest 10 day(s).
| Time | Temp. | Humidity | Pressure | Rain* | Wind** | Luminosity | Snow |
|---|---|---|---|---|---|---|---|
| 1777703109 | 17.22° C | 40% | 1023.7 hPa | 0 mm | - | - | - |
| 1777702813 | 17.22° C | 41% | 1023.7 hPa | 0 mm | - | - | - |
| 1777702513 | 17.22° C | 41% | 1023.7 hPa | 0 mm | - | - | - |
| 1777702213 | 17.22° C | 41% | 1023.4 hPa | 0 mm | - | - | - |
| 1777701909 | 17.22° C | 45% | 1023.7 hPa | 0 mm | - | - | - |
| 1777701633 | 17.22° C | 44% | 1023.7 hPa | 0 mm | - | - | - |
| 1777701308 | 17.22° C | 43% | 1023.7 hPa | 0 mm | - | - | - |
| 1777701012 | 17.22° C | 42% | 1023.7 hPa | 0 mm | - | - | - |
| 1777700712 | 17.22° C | 44% | 1024 hPa | 0 mm | - | - | - |
| 1777700412 | 17.22° C | 44% | 1023.7 hPa | 0 mm | - | - | - |
| 1777700109 | 17.22° C | 45% | 1023.7 hPa | 0 mm | - | - | - |
| 1777699822 | 16.11° C | 46% | 1023.4 hPa | 0 mm | - | - | - |
| 1777699509 | 16.11° C | 44% | 1023.4 hPa | 0 mm | - | - | - |
| 1777699213 | 15° C | 46% | 1023.4 hPa | 0 mm | - | - | - |
| 1777698913 | 15° C | 46% | 1023.4 hPa | 0 mm | - | - | - |
| 1777698613 | 15° C | 47% | 1023.4 hPa | 0 mm | - | - | - |
| 1777698309 | 15° C | 47% | 1023.4 hPa | 0 mm | - | - | - |
| 1777698031 | 13.89° C | 50% | 1023.4 hPa | 0 mm | - | - | - |
| 1777697709 | 12.78° C | 51% | 1023.4 hPa | 0 mm | - | - | - |
| 1777697412 | 12.78° C | 54% | 1023.4 hPa | 0 mm | - | - | - |
| 1777697111 | 12.78° C | 50% | 1023.4 hPa | 0 mm | - | - | - |
| 1777696813 | 15° C | 42% | 1023 hPa | 0 mm | - | - | - |
| 1777696508 | 13.89° C | 43% | 1023 hPa | 0 mm | - | - | - |
| 1777696222 | 13.89° C | 46% | 1023.4 hPa | 0 mm | - | - | - |
| 1777695909 | 13.89° C | 45% | 1023.4 hPa | 0 mm | - | - | - |
* Rain latest hour (hover to see other rain measurements)
** Current wind speed in m/s (hover to see current wind gust speed)